createdAt,value
2022-11-09T00:00:02.637Z,3.15
2022-11-09T00:02:29.086Z,2.72
2022-11-09T00:04:57.752Z,3.35
2022-11-09T00:07:24.147Z,3.75
2022-11-09T00:09:50.599Z,3.17
2022-11-09T00:12:19.270Z,3.08
2022-11-09T00:14:45.718Z,3.83
2022-11-09T00:17:12.200Z,4.82
2022-11-09T00:19:41.731Z,4.57
2022-11-09T00:22:08.658Z,3.33
2022-11-09T00:24:35.439Z,5.20
2022-11-09T00:27:01.872Z,3.80
2022-11-09T00:29:28.548Z,3.20
2022-11-09T00:31:55.089Z,4.28
2022-11-09T00:34:23.853Z,4.75
2022-11-09T00:36:50.228Z,3.85
2022-11-09T00:39:16.748Z,3.47
2022-11-09T00:41:43.159Z,3.47
2022-11-09T00:44:09.672Z,3.63
2022-11-09T00:46:36.375Z,3.63
2022-11-09T00:49:05.008Z,4.13
2022-11-09T00:51:33.602Z,3.90
2022-11-09T00:54:00.076Z,5.10
2022-11-09T00:56:29.530Z,6.20
2022-11-09T00:58:56.181Z,6.20
2022-11-09T01:01:23.058Z,5.70
2022-11-09T01:03:49.724Z,5.10
2022-11-09T01:06:19.146Z,5.15
2022-11-09T01:08:46.650Z,4.65
2022-11-09T01:11:16.053Z,4.50
2022-11-09T01:13:42.527Z,4.63
2022-11-09T01:16:11.835Z,4.90
2022-11-09T01:18:38.985Z,4.97
2022-11-09T01:21:10.151Z,5.13
2022-11-09T01:23:37.153Z,4.28
2022-11-09T01:26:14.049Z,4.50
2022-11-09T01:28:43.466Z,4.45
2022-11-09T01:31:15.759Z,4.47
2022-11-09T01:33:42.590Z,4.78
2022-11-09T01:36:12.122Z,4.00
2022-11-09T01:38:39.439Z,4.68
2022-11-09T01:41:07.704Z,4.70
2022-11-09T01:43:37.280Z,4.53
2022-11-09T01:46:14.362Z,4.10
2022-11-09T01:48:46.078Z,5.00
2022-11-09T01:51:18.746Z,5.18
2022-11-09T01:53:49.692Z,3.88
2022-11-09T01:56:18.284Z,4.68
2022-11-09T01:58:50.467Z,5.65
2022-11-09T02:03:55.971Z,5.80
2022-11-09T02:06:25.585Z,6.47
2022-11-09T02:08:56.447Z,6.38
2022-11-09T02:11:24.036Z,5.88
2022-11-09T02:13:56.991Z,5.50
2022-11-09T02:16:24.237Z,4.80
2022-11-09T02:18:53.985Z,4.80
2022-11-09T02:21:24.688Z,4.35
2022-11-09T02:23:51.793Z,4.93
2022-11-09T02:26:24.310Z,4.60
2022-11-09T02:28:54.372Z,5.03
2022-11-09T02:31:22.663Z,5.25
2022-11-09T02:34:00.055Z,3.97
2022-11-09T02:36:28.576Z,4.13
2022-11-09T02:38:56.356Z,3.63
2022-11-09T02:41:23.998Z,4.32
2022-11-09T02:43:52.455Z,4.20
2022-11-09T02:46:33.677Z,4.00
2022-11-09T02:49:03.727Z,4.57
2022-11-09T02:51:30.515Z,4.15
2022-11-09T02:53:56.930Z,3.97
2022-11-09T02:56:23.569Z,4.28
2022-11-09T02:58:50.101Z,4.60
2022-11-09T03:01:16.521Z,4.40
2022-11-09T03:03:43.105Z,4.40
2022-11-09T03:06:09.585Z,4.93
2022-11-09T03:08:36.818Z,4.65
2022-11-09T03:11:03.349Z,5.38
2022-11-09T03:13:29.720Z,4.50
2022-11-09T03:15:56.138Z,4.30
2022-11-09T03:18:22.516Z,4.90
2022-11-09T03:20:48.877Z,4.60
2022-11-09T03:23:15.306Z,5.97
2022-11-09T03:25:41.702Z,5.38
2022-11-09T03:28:10.415Z,5.50
2022-11-09T03:30:37.026Z,5.53
2022-11-09T03:33:09.921Z,5.13
2022-11-09T03:35:38.613Z,5.80
2022-11-09T03:38:07.374Z,6.18
2022-11-09T03:40:33.806Z,5.30
2022-11-09T03:43:00.230Z,6.80
2022-11-09T03:45:28.844Z,6.25
2022-11-09T03:48:00.356Z,6.53
2022-11-09T03:50:34.109Z,6.45
2022-11-09T03:53:01.124Z,6.55
2022-11-09T03:55:28.603Z,6.47
2022-11-09T03:57:55.290Z,5.95
2022-11-09T04:00:23.302Z,6.45
2022-11-09T04:02:50.108Z,6.18
2022-11-09T04:05:17.029Z,6.57
2022-11-09T04:07:50.725Z,6.55
2022-11-09T04:10:18.224Z,6.47
2022-11-09T04:12:44.748Z,5.63
2022-11-09T04:15:15.380Z,6.40
2022-11-09T04:17:41.906Z,6.13
2022-11-09T04:20:09.055Z,5.65
2022-11-09T04:22:35.527Z,6.30
2022-11-09T04:25:02.044Z,6.07
2022-11-09T04:27:29.942Z,6.10
2022-11-09T04:29:56.670Z,6.95
2022-11-09T04:32:26.024Z,6.45
2022-11-09T04:34:54.946Z,6.93
2022-11-09T04:37:23.714Z,6.15
2022-11-09T04:39:52.563Z,5.53
2022-11-09T04:42:19.301Z,6.38
2022-11-09T04:44:45.710Z,5.03
2022-11-09T04:47:12.094Z,5.85
2022-11-09T04:49:38.453Z,5.68
2022-11-09T04:52:04.835Z,4.85
2022-11-09T04:54:31.329Z,4.70
2022-11-09T04:56:57.686Z,5.00
2022-11-09T04:59:24.034Z,4.85
2022-11-09T05:01:50.468Z,4.43
2022-11-09T05:04:16.908Z,4.60
2022-11-09T05:06:43.340Z,4.15
2022-11-09T05:09:09.848Z,4.50
2022-11-09T05:11:37.040Z,4.57
2022-11-09T05:14:06.117Z,4.07
2022-11-09T05:16:34.859Z,4.70
2022-11-09T05:19:01.246Z,4.45
2022-11-09T05:21:27.695Z,4.57
2022-11-09T05:24:00.081Z,4.85
2022-11-09T05:26:29.016Z,3.95
2022-11-09T05:28:55.790Z,4.75
2022-11-09T05:31:22.274Z,5.35
2022-11-09T05:33:50.739Z,4.15
2022-11-09T05:36:20.028Z,5.28
2022-11-09T05:38:49.464Z,6.00
2022-11-09T05:41:18.498Z,5.63
2022-11-09T05:43:45.265Z,5.93
2022-11-09T05:46:13.482Z,4.43
2022-11-09T05:48:40.254Z,5.40
2022-11-09T05:51:08.708Z,5.68
2022-11-09T05:53:35.553Z,4.95
2022-11-09T05:56:05.079Z,5.65
2022-11-09T05:58:36.184Z,4.70
2022-11-09T06:01:05.938Z,4.05
2022-11-09T06:03:32.657Z,4.32
2022-11-09T06:06:08.339Z,4.63
2022-11-09T06:08:35.455Z,4.55
2022-11-09T06:11:06.287Z,3.78
2022-11-09T06:13:33.307Z,4.97
2022-11-09T06:16:01.531Z,4.68
2022-11-09T06:18:32.030Z,4.80
2022-11-09T06:21:01.511Z,4.32
2022-11-09T06:23:31.160Z,4.32
2022-11-09T06:25:59.714Z,4.82
2022-11-09T06:28:26.852Z,4.75
2022-11-09T06:30:53.661Z,4.32
2022-11-09T06:33:20.375Z,4.28
2022-11-09T06:35:49.788Z,3.92
2022-11-09T06:38:18.509Z,4.30
2022-11-09T06:40:45.222Z,3.72
2022-11-09T06:43:11.916Z,3.80
2022-11-09T06:45:38.275Z,3.95
2022-11-09T06:48:05.086Z,3.58
2022-11-09T06:50:34.826Z,3.83
2022-11-09T06:53:08.314Z,3.20
2022-11-09T06:55:36.200Z,3.20
2022-11-09T06:58:07.743Z,3.63
2022-11-09T07:00:34.305Z,3.25
2022-11-09T07:03:00.787Z,3.80
2022-11-09T07:05:27.436Z,3.58
2022-11-09T07:07:58.778Z,3.97
2022-11-09T07:10:25.259Z,4.47
2022-11-09T07:12:59.787Z,4.22
2022-11-09T07:15:26.203Z,5.03
2022-11-09T07:17:56.992Z,4.63
2022-11-09T07:20:27.010Z,3.58
2022-11-09T07:22:55.983Z,3.67
2022-11-09T07:25:23.037Z,2.72
2022-11-09T07:27:49.510Z,2.28
2022-11-09T07:30:20.737Z,2.60
2022-11-09T07:33:08.213Z,2.33
2022-11-09T07:35:38.490Z,2.35
2022-11-09T07:38:05.116Z,2.20
2022-11-09T07:40:31.510Z,2.05
2022-11-09T07:42:59.811Z,2.00
2022-11-09T07:45:27.175Z,1.55
2022-11-09T07:47:58.382Z,1.70
2022-11-09T07:50:25.907Z,1.97
2022-11-09T07:52:56.159Z,1.25
2022-11-09T07:55:23.206Z,1.30
2022-11-09T07:57:51.620Z,1.63
2022-11-09T08:00:23.345Z,2.00
2022-11-09T08:05:16.612Z,1.52
2022-11-09T08:07:43.095Z,1.48
2022-11-09T08:10:10.099Z,1.05
2022-11-09T08:12:37.360Z,1.58
2022-11-09T08:15:07.295Z,1.00
2022-11-09T08:17:35.859Z,1.17
2022-11-09T08:20:03.049Z,1.40
2022-11-09T08:22:29.445Z,1.52
2022-11-09T08:24:58.251Z,1.25
2022-11-09T08:27:24.809Z,1.00
2022-11-09T08:29:51.172Z,1.00
2022-11-09T08:32:17.529Z,1.30
2022-11-09T08:34:49.991Z,1.40
2022-11-09T08:37:16.955Z,1.30
2022-11-09T08:39:45.890Z,2.00
2022-11-09T08:42:14.749Z,1.80
2022-11-09T08:44:41.112Z,2.00
2022-11-09T08:47:07.509Z,1.83
2022-11-09T08:49:35.040Z,1.88
2022-11-09T08:52:01.446Z,1.63
2022-11-09T08:54:27.963Z,1.88
2022-11-09T08:56:57.597Z,1.60
2022-11-09T08:59:26.425Z,1.08
2022-11-09T09:01:55.218Z,1.23
2022-11-09T09:04:21.696Z,1.35
2022-11-09T09:06:48.099Z,1.30
2022-11-09T09:09:16.951Z,1.10
2022-11-09T09:11:43.390Z,1.27
2022-11-09T09:14:09.746Z,1.33
2022-11-09T09:16:36.116Z,1.80
2022-11-09T09:19:04.893Z,0.98
2022-11-09T09:21:31.377Z,1.10
2022-11-09T09:23:58.006Z,1.08
2022-11-09T09:26:27.070Z,1.15
2022-11-09T09:28:53.464Z,1.10
2022-11-09T09:31:19.952Z,1.30
2022-11-09T09:33:47.455Z,1.00
2022-11-09T09:36:21.479Z,0.73
2022-11-09T09:38:54.823Z,0.82
2022-11-09T09:41:28.480Z,1.90
2022-11-09T09:43:59.028Z,1.85
2022-11-09T09:46:44.328Z,0.88
2022-11-09T09:49:19.031Z,2.88
2022-11-09T09:51:52.194Z,1.65
2022-11-09T09:54:25.873Z,1.63
2022-11-09T09:56:57.217Z,0.90
2022-11-09T09:59:40.887Z,1.67
2022-11-09T10:02:28.351Z,1.75
2022-11-09T10:04:57.905Z,1.20
2022-11-09T10:07:56.461Z,1.10
2022-11-09T10:10:40.120Z,1.60
2022-11-09T10:13:43.830Z,0.90
2022-11-09T10:16:14.283Z,2.75
2022-11-09T10:18:59.398Z,2.55
2022-11-09T10:21:58.237Z,1.30
2022-11-09T10:24:48.533Z,1.35
2022-11-09T10:27:30.213Z,1.40
2022-11-09T10:29:59.063Z,2.17
2022-11-09T10:32:31.489Z,2.08
2022-11-09T10:35:13.215Z,3.03
2022-11-09T10:37:41.180Z,1.58
2022-11-09T10:40:16.866Z,1.58
2022-11-09T10:43:05.382Z,1.75
2022-11-09T10:45:37.738Z,1.48
2022-11-09T10:48:08.518Z,1.83
2022-11-09T10:50:39.224Z,3.00
2022-11-09T10:53:18.159Z,4.35
2022-11-09T10:56:04.346Z,4.25
2022-11-09T10:58:38.398Z,4.35
2022-11-09T11:01:13.762Z,2.45
2022-11-09T11:03:42.105Z,2.65
2022-11-09T11:06:14.477Z,2.80
2022-11-09T11:08:45.885Z,2.58
2022-11-09T11:11:33.766Z,2.40
2022-11-09T11:14:29.227Z,2.53
2022-11-09T11:16:56.164Z,2.20
2022-11-09T11:19:37.446Z,1.98
2022-11-09T11:22:27.361Z,2.67
2022-11-09T11:25:11.569Z,3.80
2022-11-09T11:27:44.976Z,3.00
2022-11-09T11:30:15.788Z,4.30
2022-11-09T11:32:48.856Z,1.77
2022-11-09T11:35:26.921Z,2.50
2022-11-09T11:38:17.763Z,2.97
2022-11-09T11:40:53.948Z,1.60
2022-11-09T11:43:32.128Z,2.30
2022-11-09T11:46:22.254Z,1.48
2022-11-09T11:49:06.469Z,1.13
2022-11-09T11:51:54.490Z,1.55
2022-11-09T11:54:49.167Z,2.22
2022-11-09T11:57:45.294Z,1.45
2022-11-09T12:00:21.251Z,1.05
2022-11-09T12:03:03.330Z,1.52
2022-11-09T12:08:21.268Z,2.10
2022-11-09T12:11:08.843Z,2.05
2022-11-09T12:13:49.761Z,1.40
2022-11-09T12:16:21.602Z,0.93
2022-11-09T12:19:05.676Z,1.20
2022-11-09T12:21:37.995Z,0.85
2022-11-09T12:24:30.643Z,1.50
2022-11-09T12:27:31.746Z,1.38
2022-11-09T12:30:08.312Z,1.25
2022-11-09T12:32:40.502Z,0.90
2022-11-09T12:35:25.452Z,1.15
2022-11-09T12:38:02.373Z,1.00
2022-11-09T12:40:36.537Z,4.75
2022-11-09T12:43:21.808Z,4.68
2022-11-09T12:45:51.201Z,1.90
2022-11-09T12:48:35.274Z,1.75
2022-11-09T12:51:05.241Z,1.95
2022-11-09T12:53:39.237Z,2.20
2022-11-09T12:56:19.057Z,1.60
2022-11-09T12:58:45.935Z,2.53
2022-11-09T13:01:33.986Z,3.70
2022-11-09T13:04:03.745Z,1.90
2022-11-09T13:06:32.264Z,2.85
2022-11-09T13:09:05.710Z,2.70
2022-11-09T13:11:38.003Z,2.15
2022-11-09T13:14:22.513Z,2.33
2022-11-09T13:16:50.445Z,2.10
2022-11-09T13:19:38.085Z,2.15
2022-11-09T13:22:13.365Z,1.70
2022-11-09T13:25:02.971Z,2.65
2022-11-09T13:27:40.369Z,2.78
2022-11-09T13:30:28.317Z,3.55
2022-11-09T13:33:06.948Z,2.10
2022-11-09T13:35:42.655Z,2.17
2022-11-09T13:38:16.707Z,3.30
2022-11-09T13:40:50.480Z,3.38
2022-11-09T13:43:30.382Z,1.70
2022-11-09T13:46:01.442Z,2.85
2022-11-09T13:48:34.627Z,2.07
2022-11-09T13:51:04.633Z,1.60
2022-11-09T13:53:37.129Z,1.50
2022-11-09T13:56:40.639Z,1.55
2022-11-09T13:59:33.355Z,1.20
2022-11-09T14:02:01.747Z,1.55
2022-11-09T14:04:34.002Z,1.67
2022-11-09T14:07:07.568Z,1.38
2022-11-09T14:10:18.858Z,1.52
2022-11-09T14:13:06.739Z,1.50
2022-11-09T14:15:42.484Z,0.98
2022-11-09T14:18:14.036Z,0.88
2022-11-09T14:20:58.317Z,1.20
2022-11-09T14:23:30.249Z,1.17
2022-11-09T14:25:57.365Z,0.95
2022-11-09T14:28:26.618Z,1.13
2022-11-09T14:30:53.822Z,1.27
2022-11-09T14:33:26.570Z,1.30
2022-11-09T14:35:57.203Z,1.02
2022-11-09T14:38:31.304Z,0.98
2022-11-09T14:40:57.871Z,1.20
2022-11-09T14:43:38.817Z,1.17
2022-11-09T14:46:14.469Z,1.00
2022-11-09T14:48:49.503Z,1.55
2022-11-09T14:51:16.546Z,1.45
2022-11-09T14:53:44.222Z,1.10
2022-11-09T14:56:13.884Z,1.13
2022-11-09T14:58:42.548Z,1.40
2022-11-09T15:01:18.118Z,0.82
2022-11-09T15:03:45.450Z,1.02
2022-11-09T15:06:17.196Z,1.25
2022-11-09T15:09:00.242Z,1.33
2022-11-09T15:11:35.939Z,1.08
2022-11-09T15:14:18.950Z,1.90
2022-11-09T15:16:49.458Z,4.88
2022-11-09T15:19:52.892Z,1.92
2022-11-09T15:22:40.558Z,2.17
2022-11-09T15:25:19.092Z,2.17
2022-11-09T15:27:56.213Z,1.45
2022-11-09T15:30:39.809Z,4.00
2022-11-09T15:33:21.450Z,4.75
2022-11-09T15:36:04.785Z,2.70
2022-11-09T15:38:34.010Z,2.00
2022-11-09T15:41:01.072Z,6.13
2022-11-09T15:43:30.586Z,5.28
2022-11-09T15:46:00.481Z,4.78
2022-11-09T15:48:30.073Z,4.40
2022-11-09T15:50:59.098Z,4.43
2022-11-09T15:53:26.126Z,3.65
2022-11-09T15:55:52.651Z,2.75
2022-11-09T15:58:19.850Z,2.40
2022-11-09T16:00:46.533Z,2.28
2022-11-09T16:03:13.631Z,2.30
2022-11-09T16:05:42.315Z,2.17
2022-11-09T16:08:09.450Z,3.83
2022-11-09T16:10:39.865Z,2.38
2022-11-09T16:13:10.270Z,2.60
2022-11-09T16:15:37.649Z,2.35
2022-11-09T16:18:04.582Z,4.13
2022-11-09T16:20:31.243Z,2.65
2022-11-09T16:22:57.852Z,2.63
2022-11-09T16:25:24.237Z,3.35
2022-11-09T16:27:51.524Z,4.03
2022-11-09T16:30:19.279Z,2.97
2022-11-09T16:32:45.719Z,3.25
2022-11-09T16:35:28.431Z,4.25
2022-11-09T16:37:57.920Z,3.65
2022-11-09T16:40:25.832Z,3.63
2022-11-09T16:42:52.327Z,4.07
2022-11-09T16:45:22.027Z,4.47
2022-11-09T16:47:56.846Z,5.10
2022-11-09T16:50:24.103Z,5.25
2022-11-09T16:52:50.549Z,4.05
2022-11-09T16:55:17.204Z,4.63
2022-11-09T16:57:43.579Z,6.30
2022-11-09T17:00:10.511Z,6.22
2022-11-09T17:02:36.949Z,6.75
2022-11-09T17:05:03.963Z,7.15
2022-11-09T17:07:30.366Z,6.40
2022-11-09T17:09:57.019Z,6.45
2022-11-09T17:12:23.430Z,7.07
2022-11-09T17:14:49.785Z,6.95
2022-11-09T17:17:22.229Z,5.88
2022-11-09T17:19:49.140Z,5.45
2022-11-09T17:22:15.868Z,4.80
2022-11-09T17:24:42.788Z,5.65
2022-11-09T17:27:10.312Z,4.45
2022-11-09T17:29:37.801Z,5.13
2022-11-09T17:32:09.332Z,4.55
2022-11-09T17:34:36.036Z,4.97
2022-11-09T17:37:04.642Z,4.15
2022-11-09T17:39:31.829Z,4.50
2022-11-09T17:41:58.210Z,7.95
2022-11-09T17:44:24.671Z,3.40
2022-11-09T17:46:53.550Z,3.53
2022-11-09T17:49:20.033Z,5.72
2022-11-09T17:51:46.420Z,4.35
2022-11-09T17:54:15.145Z,5.43
2022-11-09T17:56:41.834Z,4.60
2022-11-09T17:59:11.296Z,4.32
2022-11-09T18:01:41.496Z,3.63
2022-11-09T18:04:13.050Z,7.40
2022-11-09T18:06:39.623Z,8.02
2022-11-09T18:11:55.529Z,3.03
2022-11-09T18:14:24.515Z,3.25
2022-11-09T18:16:51.032Z,3.42
2022-11-09T18:19:17.519Z,3.13
2022-11-09T18:21:47.394Z,6.18
2022-11-09T18:24:14.292Z,7.50
2022-11-09T18:26:40.747Z,5.10
2022-11-09T18:29:09.720Z,5.20
2022-11-09T18:31:36.186Z,6.53
2022-11-09T18:34:02.696Z,29.13
2022-11-09T18:36:29.075Z,13.05
2022-11-09T18:38:55.908Z,13.63
2022-11-09T18:41:24.037Z,3.85
2022-11-09T18:43:51.587Z,3.13
2022-11-09T18:46:19.757Z,4.15
2022-11-09T18:48:50.962Z,5.45
2022-11-09T18:51:17.695Z,4.87
2022-11-09T18:53:45.852Z,3.97
2022-11-09T18:56:18.619Z,3.60
2022-11-09T18:58:46.095Z,4.13
2022-11-09T19:01:12.957Z,3.00
2022-11-09T19:03:39.657Z,2.03
2022-11-09T19:06:14.608Z,2.00
2022-11-09T19:08:59.500Z,2.20
2022-11-09T19:11:29.992Z,2.80
2022-11-09T19:13:57.033Z,8.45
2022-11-09T19:16:24.806Z,8.52
2022-11-09T19:18:51.371Z,3.42
2022-11-09T19:21:34.688Z,3.00
2022-11-09T19:24:03.704Z,3.10
2022-11-09T19:26:30.253Z,2.40
2022-11-09T19:28:56.739Z,2.33
2022-11-09T19:31:24.397Z,2.38
2022-11-09T19:33:54.439Z,2.42
2022-11-09T19:36:31.255Z,2.47
2022-11-09T19:38:58.115Z,4.05
2022-11-09T19:41:25.520Z,6.13
2022-11-09T19:43:58.387Z,3.63
2022-11-09T19:46:31.985Z,5.28
2022-11-09T19:48:58.555Z,3.88
2022-11-09T19:51:25.352Z,4.70
2022-11-09T19:53:55.098Z,4.03
2022-11-09T19:56:23.722Z,3.95
2022-11-09T19:58:51.949Z,3.97
2022-11-09T20:01:19.048Z,11.15
2022-11-09T20:03:49.859Z,10.57
2022-11-09T20:06:17.115Z,6.75
2022-11-09T20:08:43.594Z,5.43
2022-11-09T20:11:34.572Z,3.90
2022-11-09T20:14:03.555Z,3.30
2022-11-09T20:16:30.301Z,3.50
2022-11-09T20:18:59.601Z,3.38
2022-11-09T20:21:26.171Z,3.13
2022-11-09T20:23:52.804Z,4.10
2022-11-09T20:26:21.818Z,3.92
2022-11-09T20:28:48.251Z,2.92
2022-11-09T20:31:22.060Z,2.78
2022-11-09T20:33:49.791Z,2.50
2022-11-09T20:36:16.327Z,2.60
2022-11-09T20:38:42.841Z,2.78
2022-11-09T20:41:11.231Z,2.88
2022-11-09T20:43:38.429Z,2.58
2022-11-09T20:46:07.212Z,1.77
2022-11-09T20:51:21.463Z,2.10
2022-11-09T20:53:49.727Z,2.90
2022-11-09T20:56:16.675Z,2.90
2022-11-09T20:58:43.216Z,2.75
2022-11-09T21:01:14.233Z,2.83
2022-11-09T21:03:41.467Z,2.65
2022-11-09T21:06:09.358Z,4.82
2022-11-09T21:08:36.418Z,5.03
2022-11-09T21:11:04.981Z,4.70
2022-11-09T21:13:32.022Z,5.00
2022-11-09T21:16:09.371Z,5.13
2022-11-09T21:18:36.048Z,6.80
2022-11-09T21:21:10.743Z,5.78
2022-11-09T21:23:56.604Z,4.65
2022-11-09T21:26:45.251Z,3.25
2022-11-09T21:29:33.772Z,3.00
2022-11-09T21:32:00.407Z,3.70
2022-11-09T21:34:30.364Z,4.40
2022-11-09T21:36:59.169Z,3.88
2022-11-09T21:39:25.907Z,4.13
2022-11-09T21:41:52.335Z,5.00
2022-11-09T21:44:18.831Z,3.97
2022-11-09T21:46:45.407Z,3.50
2022-11-09T21:49:13.590Z,3.83
2022-11-09T21:51:40.822Z,3.95
2022-11-09T21:54:08.359Z,3.30
2022-11-09T21:56:35.069Z,2.90
2022-11-09T21:59:01.520Z,3.38
2022-11-09T22:01:28.138Z,2.47
2022-11-09T22:03:54.802Z,2.47
2022-11-09T22:06:25.507Z,2.35
2022-11-09T22:08:51.931Z,2.55
2022-11-09T22:11:21.199Z,4.68
2022-11-09T22:14:06.040Z,3.10
2022-11-09T22:16:36.297Z,2.63
2022-11-09T22:19:21.584Z,3.15
2022-11-09T22:21:50.520Z,2.20
2022-11-09T22:24:16.943Z,2.30
2022-11-09T22:26:43.407Z,2.10
2022-11-09T22:29:11.944Z,2.40
2022-11-09T22:31:40.987Z,2.08
2022-11-09T22:34:07.440Z,1.90
2022-11-09T22:36:36.997Z,3.20
2022-11-09T22:39:03.660Z,1.80
2022-11-09T22:41:30.194Z,1.95
2022-11-09T22:43:57.094Z,2.28
2022-11-09T22:46:23.797Z,1.98
2022-11-09T22:48:52.699Z,3.05
2022-11-09T22:51:19.574Z,2.88
2022-11-09T22:53:53.075Z,2.05
2022-11-09T22:56:22.061Z,2.22
2022-11-09T22:58:52.236Z,2.85
2022-11-09T23:01:20.247Z,2.33
2022-11-09T23:03:46.915Z,2.65
2022-11-09T23:06:20.350Z,2.55
2022-11-09T23:08:47.195Z,2.70
2022-11-09T23:11:19.620Z,3.13
2022-11-09T23:13:51.090Z,2.20
2022-11-09T23:16:17.971Z,2.22
2022-11-09T23:18:54.108Z,2.20
2022-11-09T23:21:35.252Z,2.28
2022-11-09T23:24:06.735Z,2.40
2022-11-09T23:26:34.190Z,2.00
2022-11-09T23:29:01.049Z,2.53
2022-11-09T23:31:30.051Z,1.90
2022-11-09T23:33:57.896Z,2.05
2022-11-09T23:36:26.579Z,2.20
2022-11-09T23:38:55.229Z,2.20
2022-11-09T23:41:21.747Z,1.88
2022-11-09T23:43:49.986Z,2.40
2022-11-09T23:46:18.093Z,1.90
2022-11-09T23:48:47.496Z,1.70
2022-11-09T23:51:14.025Z,2.45
2022-11-09T23:53:40.414Z,2.20
2022-11-09T23:56:09.463Z,2.33
2022-11-09T23:58:37.060Z,2.45
